Wilmington, DE (19885)

10:30 AM EDT on June 03, 2015 (GMT -0400)
DEOS | | Change Station
CLOSE
Current Station
Personal Weather Station
Location: Greenville, DE
Elevation: 9 ft
Nearby Weather Stations

Elev 9 ft 39.73 °N, 75.52 °W | Updated 50 minutes ago

Overcast
Overcast
57 °F
Feels Like 57 °F
N
3
Wind Variable Wind from ENE
Gusts 8.0 mph

Today
High -- | Low -- °F
--% Chance of Precip.
Yesterday
High -- | Low -- °F
Precip. -- in
5:35 AM 8:25 PM
Full, 99% visible
Pressure 30.22 in
Visibility 10.0 miles
Clouds Few 1700 ft
Overcast 3500 ft
Dew Point 50 °F
Humidity 77%
Rainfall in
Snow Depth Not available.
UV 2 out of 12
Pollen 4.30 out of 12
Air Quality Not available.
Flu Activity No Activity
METAR KILG 031351Z 07009G17KT 10SM FEW017 OVC035 14/11 A3022 RMK AO2 SLP234 T01440106

More Conditions Fewer Conditions

Pressure 30.22 in
Visibility 10.0 miles
Clouds Few 1700 ft
Overcast 3500 ft
Dew Point 50 °F
Humidity 77%
Rainfall in
Snow Depth Not available.
UV 2 out of 12
Pollen 4.30 out of 12
Air Quality Not available.
Flu Activity No Activity
METAR KILG 031351Z 07009G17KT 10SM FEW017 OVC035 14/11 A3022 RMK AO2 SLP234 T01440106

More Conditions Fewer Conditions

10-Day Weather Forecast

×

Almanac

Astronomy

Jun. 03, 2015 Rise Set
Actual Time
Civil Twilight
Nautical Twilight
Astronomical Twilight
Moon
Length of Visible Light
Length of Day
Tomorrow will be .
, % of the Moon is Illuminated

Today's Extremes

State Highs State Lows

Community

WunderPhotos

Upload Photos

1,826,229 photos uploaded!

WunderBlogs® & News

Nearby

Air Quality

  Air Quality AQ Index Pollutant
Not available.

Snow Depth

Station Depth Elevation

Earthquake Activity

City Distance Mag. Time & Date
Minimum magnitude displayed is 2.5.

Coastal Water Temperatures

Place Temperature

Stations

Nearby Weather Stations

Station Location Temp. Windchill Dew Point Humidity Wind Precip. Elev Updated Type